Time;durP1;ratioP1;P1;durP2;ratioP2;P2;SDS_P1;SDS_P2;PMS_P1;PMS_P2;Temp;Humidity;BMP_temperature;BMP_pressure;BME280_temperature;BME280_humidity;BME280_pressure;Samples;Min_cycle;Max_cycle;Signal;HPM_P1;HPM_P2
2023/09/21 06:39:12;;;;;;;;;3.33;3.33;;;;;23.43;56.71;99556.56;5064160;27;45525;-73
2023/09/21 06:41:39;;;;;;;;;6.00;3.00;;;;;23.58;56.70;99547.50;5068484;28;45710;-72
2023/09/21 06:44:05;;;;;;;;;3.67;1.00;;;;;23.78;56.57;99544.91;5066809;28;45417;-71
2023/09/21 06:46:30;;;;;;;;;3.00;2.00;;;;;24.02;56.23;99552.75;5057480;28;45818;-71
2023/09/21 06:48:55;;;;;;;;;3.00;3.00;;;;;24.25;55.92;99555.19;5065374;28;45423;-72
2023/09/21 06:51:21;;;;;;;;;1.67;1.67;;;;;24.50;55.16;99556.53;5064851;27;45382;-72
2023/09/21 06:53:48;;;;;;;;;3.00;3.00;;;;;24.75;54.74;99556.81;5068240;27;46046;-72
2023/09/21 06:56:13;;;;;;;;;2.00;2.00;;;;;24.99;54.63;99550.00;5065270;28;45345;-72
2023/09/21 06:58:39;;;;;;;;;1.00;1.00;;;;;25.22;53.89;99545.19;5067676;28;45423;-72
2023/09/21 07:01:04;;;;;;;;;3.00;3.00;;;;;25.44;53.12;99547.69;5059813;27;45554;-73
2023/09/21 07:03:30;;;;;;;;;2.00;2.00;;;;;25.64;52.58;99544.97;5059542;28;45519;-73
2023/09/21 07:05:55;;;;;;;;;2.00;2.00;;;;;25.83;52.19;99550.59;5063611;27;45446;-71
2023/09/21 07:08:21;;;;;;;;;1.00;1.00;;;;;25.99;51.70;99555.53;5067208;28;45473;-71
2023/09/21 07:10:48;;;;;;;;;2.33;1.33;;;;;26.16;52.11;99555.09;5058578;27;45465;-71
2023/09/21 07:13:14;;;;;;;;;2.00;2.00;;;;;26.29;51.36;99555.03;5055069;28;45911;-72
2023/09/21 07:15:40;;;;;;;;;5.33;3.00;;;;;26.43;51.11;99564.00;5062209;28;45494;-73
2023/09/21 07:18:09;;;;;;;;;2.33;2.33;;;;;26.56;50.91;99551.34;5066625;27;45398;-73
2023/09/21 07:20:35;;;;;;;;;2.33;2.33;;;;;26.65;50.78;99541.88;5057017;27;45622;-73
2023/09/21 07:23:00;;;;;;;;;2.00;2.00;;;;;26.77;51.01;99541.19;5052050;28;45479;-73
2023/09/21 07:25:28;;;;;;;;;5.00;4.00;;;;;26.83;50.79;99533.00;5056309;28;45870;-75
2023/09/21 07:27:54;;;;;;;;;3.00;3.00;;;;;26.92;50.45;99530.84;5062629;28;45457;-74
2023/09/21 07:30:25;;;;;;;;;2.00;2.00;;;;;27.00;50.27;99513.41;5059513;28;45445;-74
2023/09/21 07:32:51;;;;;;;;;2.33;1.67;;;;;27.06;50.41;99514.44;5067759;27;45586;-74
2023/09/21 07:35:19;;;;;;;;;1.67;1.67;;;;;27.12;50.15;99520.84;5060248;28;45684;-74
2023/09/21 07:37:46;;;;;;;;;5.00;2.67;;;;;27.16;49.42;99520.19;5072498;27;46422;-74
2023/09/21 07:40:12;;;;;;;;;4.00;2.33;;;;;27.21;49.77;99517.63;5080493;27;45556;-73
2023/09/21 07:42:42;;;;;;;;;2.33;2.00;;;;;27.25;49.93;99517.22;5070462;27;45660;-73
2023/09/21 07:45:09;;;;;;;;;2.00;2.00;;;;;27.29;49.82;99518.41;5074835;27;45526;-74
2023/09/21 07:47:35;;;;;;;;;2.00;2.00;;;;;27.33;49.11;99509.56;5079568;27;47290;-75
2023/09/21 07:50:01;;;;;;;;;2.00;2.00;;;;;27.38;49.27;99508.06;5063318;28;45593;-75
2023/09/21 07:52:29;;;;;;;;;2.33;2.33;;;;;27.41;48.70;99500.28;5071976;28;45482;-74
2023/09/21 07:54:54;;;;;;;;;3.33;3.00;;;;;27.44;48.71;99504.44;5058503;28;45678;-74
2023/09/21 07:57:20;;;;;;;;;2.00;2.00;;;;;27.47;48.45;99506.72;5068076;28;46051;-75
2023/09/21 07:59:45;;;;;;;;;1.33;1.33;;;;;27.48;48.40;99503.78;5074711;28;45920;-75
2023/09/21 08:02:12;;;;;;;;;2.00;2.00;;;;;27.50;48.49;99495.34;5073028;28;45528;-75
2023/09/21 08:04:38;;;;;;;;;2.00;2.00;;;;;27.52;48.78;99506.03;5074078;27;45598;-75
2023/09/21 08:07:05;;;;;;;;;2.00;2.00;;;;;27.55;48.58;99500.13;5068335;28;47130;-75
2023/09/21 08:09:31;;;;;;;;;3.00;3.00;;;;;27.55;48.53;99492.78;5072457;28;45484;-75
2023/09/21 08:11:57;;;;;;;;;1.33;1.33;;;;;27.57;47.58;99495.28;5071992;28;45620;-75
2023/09/21 08:14:23;;;;;;;;;1.00;1.00;;;;;27.59;48.61;99495.91;5070731;28;45577;-75
2023/09/21 08:16:49;;;;;;;;;3.00;3.00;;;;;27.58;48.44;99495.06;5063498;28;45538;-75
2023/09/21 08:19:14;;;;;;;;;3.00;3.00;;;;;27.61;47.53;99493.81;5072346;28;45500;-75
2023/09/21 08:21:40;;;;;;;;;0.67;0.67;;;;;27.61;47.54;99493.81;5065287;27;45301;-78
2023/09/21 08:24:06;;;;;;;;;2.67;2.33;;;;;27.62;47.48;99493.59;5074196;28;45732;-76
2023/09/21 08:26:32;;;;;;;;;4.00;2.00;;;;;27.62;47.51;99487.28;5071394;28;45572;-78
2023/09/21 08:28:59;;;;;;;;;3.00;3.00;;;;;27.64;47.29;99478.91;5073659;28;45681;-76
2023/09/21 08:31:24;;;;;;;;;2.00;2.00;;;;;27.62;47.48;99482.69;5067287;27;45423;-76
2023/09/21 08:33:50;;;;;;;;;3.00;3.00;;;;;27.65;47.35;99475.94;5067125;28;45614;-76
2023/09/21 08:36:15;;;;;;;;;2.33;2.33;;;;;27.67;47.01;99481.19;5069975;28;46052;-75
2023/09/21 08:38:41;;;;;;;;;2.67;1.67;;;;;27.69;47.60;99487.22;5073350;28;45403;-76
2023/09/21 08:41:07;;;;;;;;;1.33;1.33;;;;;27.69;47.50;99479.88;5070965;28;45355;-76
2023/09/21 08:43:35;;;;;;;;;2.00;2.00;;;;;27.67;46.95;99471.09;5067024;28;45578;-75
2023/09/21 08:46:00;;;;;;;;;4.33;2.67;;;;;27.69;47.29;99479.03;5063514;28;45657;-75
2023/09/21 08:48:27;;;;;;;;;1.33;1.33;;;;;27.69;47.02;99488.06;5070285;28;45474;-76
2023/09/21 08:50:55;;;;;;;;;2.33;2.33;;;;;27.67;46.75;99479.25;5070984;28;45525;-75
2023/09/21 08:53:22;;;;;;;;;3.33;2.00;;;;;27.67;47.34;99473.81;5068247;28;45480;-75
2023/09/21 08:55:49;;;;;;;;;2.67;2.00;;;;;27.63;46.67;99472.63;5073035;28;45435;-73
2023/09/21 08:58:27;;;;;;;;;2.00;2.00;;;;;27.65;47.02;99473.22;5067261;28;47291;-74
2023/09/21 09:00:56;;;;;;;;;2.67;2.67;;;;;27.64;46.74;99474.28;5067666;28;45519;-73
2023/09/21 09:03:25;;;;;;;;;2.00;2.00;;;;;27.65;47.11;99462.31;5067302;28;45629;-74
2023/09/21 09:05:53;;;;;;;;;1.00;1.00;;;;;27.64;47.07;99463.38;5073372;28;45493;-73
2023/09/21 09:08:19;;;;;;;;;3.00;3.00;;;;;27.64;46.68;99457.94;5060134;28;45610;-75
2023/09/21 09:10:44;;;;;;;;;3.00;1.67;;;;;27.65;46.93;99453.31;5073075;28;45821;-74
2023/09/21 09:13:10;;;;;;;;;1.00;1.00;;;;;27.63;46.70;99453.56;5063116;28;45527;-73
2023/09/21 09:15:41;;;;;;;;;2.00;2.00;;;;;27.62;47.07;99440.97;5065044;28;46452;-74
2023/09/21 09:18:08;;;;;;;;;2.00;1.00;;;;;27.65;47.10;99456.03;5064674;28;45594;-73
2023/09/21 09:20:36;;;;;;;;;2.00;2.00;;;;;27.65;47.15;99448.69;5054507;28;45723;-74
2023/09/21 09:23:03;;;;;;;;;1.00;1.00;;;;;27.65;47.24;99440.53;5058048;28;45742;-74
2023/09/21 09:25:28;;;;;;;;;2.00;2.00;;;;;27.67;46.41;99443.03;5059794;28;45533;-72
2023/09/21 09:27:54;;;;;;;;;4.00;2.00;;;;;27.67;46.93;99441.13;5066589;28;45915;-72
2023/09/21 09:30:23;;;;;;;;;2.00;2.00;;;;;27.68;46.49;99436.50;5072437;28;45419;-72
2023/09/21 09:32:50;;;;;;;;;2.00;1.00;;;;;27.69;46.84;99432.72;5069271;28;45802;-72
2023/09/21 09:35:17;;;;;;;;;2.00;2.00;;;;;27.70;46.38;99446.13;5072933;28;47367;-72
2023/09/21 09:37:43;;;;;;;;;1.00;1.00;;;;;27.70;46.59;99445.28;5071350;28;45548;-72
2023/09/21 09:40:13;;;;;;;;;2.33;1.33;;;;;27.68;46.93;99450.97;5068319;28;45375;-72
2023/09/21 09:42:40;;;;;;;;;1.00;1.00;;;;;27.70;46.46;99448.84;5067984;28;45605;-72
2023/09/21 09:45:16;;;;;;;;;2.00;1.00;;;;;27.72;46.24;99454.06;5064045;28;45778;-72
2023/09/21 09:48:04;;;;;;;;;1.00;1.00;;;;;27.74;46.50;99462.84;5072565;28;45395;-72
2023/09/21 09:50:36;;;;;;;;;2.00;2.00;;;;;27.71;46.52;99438.78;5071414;28;45725;-72
2023/09/21 09:53:06;;;;;;;;;1.00;1.00;;;;;27.72;46.26;99446.72;5069801;28;45606;-72
2023/09/21 09:55:36;;;;;;;;;1.00;1.00;;;;;27.71;46.50;99453.22;5071545;28;45470;-73
2023/09/21 09:58:08;;;;;;;;;2.33;2.33;;;;;27.71;46.85;99453.22;5070906;28;45714;-73
2023/09/21 10:00:35;;;;;;;;;2.00;2.00;;;;;27.72;46.54;99454.88;5072790;28;45498;-73
2023/09/21 10:03:03;;;;;;;;;2.00;2.00;;;;;27.71;46.84;99449.69;5054235;28;45438;-73
2023/09/21 10:05:29;;;;;;;;;2.00;2.00;;;;;27.70;46.52;99446.13;5067486;28;45736;-73
2023/09/21 10:07:59;;;;;;;;;1.67;1.67;;;;;27.68;47.08;99440.06;5064912;28;45968;-73
2023/09/21 10:10:30;;;;;;;;;2.00;2.00;;;;;27.69;46.99;99438.16;5071762;28;45426;-73
2023/09/21 10:12:57;;;;;;;;;1.00;1.00;;;;;27.71;46.58;99436.06;5056041;28;45456;-73
2023/09/21 10:15:23;;;;;;;;;2.00;2.00;;;;;27.70;46.46;99435.22;5067744;28;46290;-74
2023/09/21 10:17:54;;;;;;;;;3.00;1.67;;;;;27.71;46.54;99441.50;5060549;28;46064;-74
2023/09/21 10:20:27;;;;;;;;;2.00;2.00;;;;;27.70;47.01;99440.66;5062960;28;45871;-74
2023/09/21 10:22:54;;;;;;;;;2.00;1.00;;;;;27.70;46.92;99448.84;5057574;28;45758;-75
2023/09/21 10:25:39;;;;;;;;;4.67;2.00;;;;;27.72;46.99;99440.44;5070271;28;45423;-76
2023/09/21 10:28:34;;;;;;;;;1.00;1.00;;;;;27.72;46.91;99446.72;5071316;28;45484;-76
2023/09/21 10:31:06;;;;;;;;;0.33;0.33;;;;;27.74;46.36;99455.50;5058176;28;45549;-75
2023/09/21 10:33:35;;;;;;;;;0.00;0.00;;;;;27.75;46.40;99451.72;5064635;28;45536;-76
2023/09/21 10:36:01;;;;;;;;;2.33;2.33;;;;;27.77;46.63;99458.81;5064218;28;46104;-76
2023/09/21 10:38:27;;;;;;;;;1.00;1.00;;;;;27.78;46.60;99455.88;5053411;28;45934;-76
2023/09/21 10:40:53;;;;;;;;;1.00;1.00;;;;;27.80;46.10;99451.03;5069274;28;45562;-75
2023/09/21 10:43:49;;;;;;;;;2.00;2.00;;;;;27.82;46.72;99461.69;5046307;28;45773;-76
2023/09/21 10:46:21;;;;;;;;;3.00;1.67;;;;;27.85;46.97;99472.16;5043072;28;46327;-74
2023/09/21 10:48:48;;;;;;;;;1.00;1.00;;;;;27.86;46.05;99482.84;5054893;28;45756;-77
2023/09/21 10:51:14;;;;;;;;;0.67;0.67;;;;;27.86;46.54;99479.25;5055929;28;45759;-77
2023/09/21 10:53:40;;;;;;;;;1.00;1.00;;;;;27.88;46.66;99488.06;5057576;28;45405;-77
2023/09/21 10:56:05;;;;;;;;;1.00;1.00;;;;;27.88;46.09;99497.06;5058683;28;46581;-77
2023/09/21 10:58:34;;;;;;;;;0.67;0.67;;;;;27.90;46.30;99502.28;5069012;28;46624;-76
2023/09/21 11:01:02;;;;;;;;;1.00;1.00;;;;;27.91;45.87;99494.97;5053685;28;45925;-77
2023/09/21 11:03:28;;;;;;;;;0.00;0.00;;;;;27.92;45.54;99493.88;5058272;28;45396;-72
2023/09/21 11:05:54;;;;;;;;;1.00;1.00;;;;;27.92;45.98;99478.38;5052325;28;45630;-76
2023/09/21 11:08:25;;;;;;;;;1.00;1.00;;;;;27.92;45.64;99469.34;5053574;28;45610;-75
2023/09/21 11:10:50;;;;;;;;;0.67;0.67;;;;;27.92;45.54;99463.91;5062991;28;45477;-73
2023/09/21 11:13:19;;;;;;;;;1.00;1.00;;;;;27.91;45.45;99471.22;5056440;28;45435;-73
2023/09/21 11:15:45;;;;;;;;;1.00;1.00;;;;;27.91;45.82;99467.69;5057112;28;45440;-75
2023/09/21 11:18:10;;;;;;;;;1.00;1.00;;;;;27.91;45.67;99464.97;5056527;28;45670;-74
2023/09/21 11:20:36;;;;;;;;;3.00;1.00;;;;;27.93;45.50;99468.28;5049903;28;46119;-74
2023/09/21 11:23:03;;;;;;;;;0.33;0.33;;;;;27.92;45.71;99461.16;5061912;28;45679;-74
2023/09/21 11:25:28;;;;;;;;;0.00;0.00;;;;;27.88;45.00;99458.88;5071302;28;46237;-74
2023/09/21 11:27:56;;;;;;;;;1.00;1.00;;;;;27.92;44.87;99447.53;5068057;28;45442;-75
2023/09/21 11:30:22;;;;;;;;;1.00;1.00;;;;;27.92;45.45;99453.00;5065963;27;45502;-74
2023/09/21 11:32:50;;;;;;;;;1.67;1.67;;;;;27.91;45.29;99473.16;5059730;28;45544;-76
2023/09/21 11:35:17;;;;;;;;;3.33;0.67;;;;;27.91;45.05;99473.16;5064753;28;47242;-73
2023/09/21 11:37:43;;;;;;;;;1.67;1.67;;;;;27.91;45.40;99462.25;5073702;28;45520;-73
2023/09/21 11:40:13;;;;;;;;;1.00;1.00;;;;;27.91;45.15;99467.69;5074142;28;45501;-73
2023/09/21 11:42:45;;;;;;;;;0.33;0.33;;;;;27.91;44.35;99459.50;5074235;28;45566;-75
2023/09/21 11:45:19;;;;;;;;;0.00;0.00;;;;;27.91;45.25;99460.31;5074379;28;45517;-74
2023/09/21 11:47:49;;;;;;;;;0.00;0.00;;;;;27.92;44.32;99462.00;5073282;28;45552;-74
2023/09/21 11:50:30;;;;;;;;;3.67;2.00;;;;;27.91;44.57;99457.59;5072491;28;45515;-75
2023/09/21 11:52:56;;;;;;;;;0.00;0.00;;;;;27.91;44.81;99454.06;5067627;28;45603;-74
2023/09/21 11:55:28;;;;;;;;;1.00;1.00;;;;;27.91;44.09;99452.16;5071368;28;45417;-73
2023/09/21 11:58:11;;;;;;;;;0.33;0.33;;;;;27.90;44.81;99438.75;5054684;28;45595;-74
2023/09/21 12:00:44;;;;;;;;;0.33;0.33;;;;;27.90;45.01;99441.50;5069758;28;45522;-73
2023/09/21 12:03:14;;;;;;;;;1.00;1.00;;;;;27.88;44.12;99433.53;5071055;28;45378;-74
2023/09/21 12:05:43;;;;;;;;;1.67;1.00;;;;;27.92;44.08;99456.56;5073791;28;47276;-74
2023/09/21 12:08:14;;;;;;;;;1.00;0.00;;;;;27.93;43.86;99449.19;5073859;28;45477;-73
2023/09/21 12:10:41;;;;;;;;;1.00;0.00;;;;;27.92;44.13;99439.34;5067655;28;45443;-74
2023/09/21 12:13:06;;;;;;;;;1.00;1.00;;;;;27.90;44.52;99417.78;5055442;28;45533;-74
2023/09/21 12:15:33;;;;;;;;;0.00;0.00;;;;;27.93;44.09;99432.84;5067289;28;46009;-72
2023/09/21 12:17:59;;;;;;;;;1.33;0.00;;;;;27.93;44.17;99439.13;5073238;28;45416;-77
2023/09/21 12:20:26;;;;;;;;;1.33;0.67;;;;;27.92;43.77;99448.38;5074115;27;45500;-73
2023/09/21 12:22:51;;;;;;;;;1.67;1.00;;;;;27.92;43.74;99463.91;5043864;28;45470;-74
2023/09/21 12:25:16;;;;;;;;;1.00;0.33;;;;;27.91;43.47;99463.06;5068338;28;46647;-74
2023/09/21 12:27:42;;;;;;;;;0.67;0.67;;;;;27.91;43.82;99468.50;5069042;28;45405;-74
2023/09/21 12:30:14;;;;;;;;;0.00;0.00;;;;;27.92;44.13;99470.19;5073721;28;45624;-74
2023/09/21 12:32:41;;;;;;;;;1.00;1.00;;;;;27.93;43.95;99474.56;5073950;28;45515;-74
2023/09/21 12:35:08;;;;;;;;;2.00;0.00;;;;;27.93;43.92;99471.00;5073659;28;45475;-74
2023/09/21 12:37:34;;;;;;;;;1.67;0.67;;;;;27.93;43.88;99469.13;5069509;28;45836;-76
2023/09/21 12:39:59;;;;;;;;;1.00;1.00;;;;;27.93;43.68;99469.13;5062155;28;45429;-77
2023/09/21 12:42:25;;;;;;;;;0.33;0.33;;;;;27.93;43.28;99468.28;5057183;28;46090;-77
2023/09/21 12:44:50;;;;;;;;;2.00;0.33;;;;;27.95;44.06;99468.91;5065818;27;46364;-75
2023/09/21 12:47:16;;;;;;;;;0.00;0.00;;;;;27.94;43.69;99450.84;5072593;28;45476;-77
2023/09/21 12:49:41;;;;;;;;;1.00;1.00;;;;;27.95;43.30;99441.63;5061817;28;45475;-75
2023/09/21 12:52:07;;;;;;;;;0.00;0.00;;;;;27.93;44.06;99421.94;5064713;28;45384;-76
2023/09/21 12:54:32;;;;;;;;;1.67;0.00;;;;;27.93;43.68;99414.59;5063184;28;46932;-74
2023/09/21 12:56:57;;;;;;;;;1.00;1.00;;;;;27.91;43.55;99422.16;5067967;28;45519;-74
2023/09/21 12:59:23;;;;;;;;;1.67;0.00;;;;;27.90;43.38;99433.31;5067685;28;45454;-74
2023/09/21 13:01:52;;;;;;;;;1.00;1.00;;;;;27.88;43.91;99439.81;5061980;28;45773;-74
2023/09/21 13:04:17;;;;;;;;;1.00;1.00;;;;;27.88;43.63;99436.25;5069871;28;47394;-73
2023/09/21 13:06:43;;;;;;;;;0.00;0.00;;;;;27.90;43.95;99452.41;5070976;28;45511;-74
2023/09/21 13:09:10;;;;;;;;;1.00;1.00;;;;;27.91;43.84;99465.78;5063890;28;45556;-71
2023/09/21 13:11:37;;;;;;;;;0.00;0.00;;;;;27.92;43.11;99455.72;5067752;28;45616;-74
2023/09/21 13:14:03;;;;;;;;;3.67;0.67;;;;;27.90;43.59;99461.38;5067543;28;47207;-74
2023/09/21 13:16:28;;;;;;;;;0.67;0.67;;;;;27.92;43.40;99462.00;5059037;28;45756;-73
2023/09/21 13:18:54;;;;;;;;;0.00;0.00;;;;;27.91;43.64;99473.16;5067632;28;45818;-73
2023/09/21 13:21:19;;;;;;;;;0.00;0.00;;;;;27.91;43.81;99470.41;5065646;28;45583;-73
2023/09/21 13:23:45;;;;;;;;;1.00;1.00;;;;;27.90;43.29;99483.22;5056057;28;46396;-74
2023/09/21 13:26:12;;;;;;;;;0.00;0.00;;;;;27.91;43.53;99470.41;5071698;28;45431;-74
2023/09/21 13:28:38;;;;;;;;;1.00;1.00;;;;;27.92;43.49;99466.63;5064647;28;45522;-74
2023/09/21 13:31:04;;;;;;;;;0.00;0.00;;;;;27.90;43.12;99461.38;5068525;28;45765;-75
2023/09/21 13:33:31;;;;;;;;;0.33;0.33;;;;;27.88;43.82;99461.63;5068908;28;46653;-73
2023/09/21 13:35:57;;;;;;;;;0.00;0.00;;;;;27.88;43.51;99458.06;5070933;28;45661;-75
2023/09/21 13:38:23;;;;;;;;;0.67;0.67;;;;;27.87;43.69;99464.56;5070134;28;45449;-74
2023/09/21 13:40:49;;;;;;;;;0.67;0.67;;;;;27.84;43.57;99456.88;5072581;28;45431;-75
2023/09/21 13:43:14;;;;;;;;;0.00;0.00;;;;;27.83;43.16;99449.75;5069319;28;45465;-74
2023/09/21 13:45:41;;;;;;;;;0.00;0.00;;;;;27.82;43.24;99458.97;5065959;28;45423;-74
2023/09/21 13:48:06;;;;;;;;;0.00;0.00;;;;;27.80;43.04;99453.78;5062304;28;45768;-75
2023/09/21 13:50:32;;;;;;;;;1.00;1.00;;;;;27.79;43.49;99452.09;5051842;28;45499;-75
2023/09/21 13:52:58;;;;;;;;;0.00;0.00;;;;;27.80;43.42;99444.75;5064728;28;45803;-75
2023/09/21 13:55:24;;;;;;;;;0.00;0.00;;;;;27.80;43.67;99422.94;5068243;27;45416;-75
2023/09/21 13:57:49;;;;;;;;;1.00;0.33;;;;;27.80;43.56;99409.31;5064751;27;45276;-75
2023/09/21 14:00:15;;;;;;;;;0.33;0.33;;;;;27.82;43.18;99408.00;5067548;28;45530;-75
2023/09/21 14:02:46;;;;;;;;;3.67;0.00;;;;;27.82;43.59;99448.06;5069589;28;46003;-75
2023/09/21 14:05:11;;;;;;;;;0.00;0.00;;;;;27.82;43.07;99480.78;5058019;28;45469;-75
2023/09/21 14:07:37;;;;;;;;;1.00;1.00;;;;;27.79;42.87;99456.72;5058659;28;45430;-74
2023/09/21 14:10:03;;;;;;;;;0.00;0.00;;;;;27.83;43.11;99468.84;5071720;28;45559;-76
2023/09/21 14:12:28;;;;;;;;;1.00;1.00;;;;;27.82;43.46;99462.53;5070716;28;46224;-77
2023/09/21 14:14:54;;;;;;;;;0.00;0.00;;;;;27.80;42.93;99459.22;5067841;28;45548;-75
2023/09/21 14:17:19;;;;;;;;;0.00;0.00;;;;;27.82;43.14;99472.59;5064308;28;45408;-76
2023/09/21 14:19:44;;;;;;;;;0.00;0.00;;;;;27.83;43.19;99468.84;5070327;28;45415;-75
2023/09/21 14:22:11;;;;;;;;;0.33;0.33;;;;;27.83;43.40;99479.75;5063075;28;45728;-76
2023/09/21 14:24:36;;;;;;;;;0.00;0.00;;;;;27.83;43.53;99486.00;5063189;28;45617;-72
2023/09/21 14:27:02;;;;;;;;;0.00;0.00;;;;;27.83;43.08;99472.38;5069086;28;45869;-73
2023/09/21 14:29:27;;;;;;;;;0.00;0.00;;;;;27.81;43.05;99455.44;5064766;27;46384;-75
2023/09/21 14:31:53;;;;;;;;;0.00;0.00;;;;;27.81;43.32;99447.25;5072586;28;45515;-76
2023/09/21 14:34:18;;;;;;;;;0.00;0.00;;;;;27.80;42.96;99439.28;5060428;28;45572;-73
2023/09/21 14:36:44;;;;;;;;;0.00;0.00;;;;;27.79;43.63;99445.81;5071908;28;45462;-74
2023/09/21 14:39:09;;;;;;;;;0.00;0.00;;;;;27.77;42.94;99437.88;5052040;28;45593;-72
2023/09/21 14:41:35;;;;;;;;;2.00;1.00;;;;;27.77;43.07;99450.66;5062581;28;46190;-73
2023/09/21 14:44:00;;;;;;;;;2.33;1.00;;;;;27.79;43.11;99443.09;5061874;28;45456;-75
2023/09/21 14:46:26;;;;;;;;;0.00;0.00;;;;;27.78;43.05;99430.53;5072278;28;45343;-73
2023/09/21 14:48:51;;;;;;;;;0.00;0.00;;;;;27.77;43.17;99431.56;5069861;28;45342;-74
2023/09/21 14:51:17;;;;;;;;;0.00;0.00;;;;;27.75;42.88;99418.19;5069789;28;46966;-73
2023/09/21 14:53:44;;;;;;;;;0.33;0.33;;;;;27.73;43.03;99434.78;5069418;28;45510;-73
2023/09/21 14:56:10;;;;;;;;;0.67;0.67;;;;;27.72;43.70;99430.34;5067733;28;45447;-74
2023/09/21 14:58:35;;;;;;;;;0.00;0.00;;;;;27.70;43.37;99437.09;5060906;28;45768;-73
2023/09/21 15:01:02;;;;;;;;;1.00;1.00;;;;;27.69;43.34;99435.44;5069002;28;45792;-74
2023/09/21 15:03:27;;;;;;;;;0.33;0.33;;;;;27.66;43.73;99442.19;5073502;28;45402;-74
2023/09/21 15:05:53;;;;;;;;;0.33;0.00;;;;;27.66;43.59;99444.09;5055501;28;45543;-74
2023/09/21 15:08:19;;;;;;;;;1.00;1.00;;;;;27.64;43.40;99447.03;5063203;28;45672;-77
2023/09/21 15:10:44;;;;;;;;;2.00;0.00;;;;;27.62;43.36;99447.25;5066128;28;46525;-76
2023/09/21 15:13:11;;;;;;;;;1.00;1.00;;;;;27.62;43.61;99458.16;5052210;28;45524;-74
2023/09/21 15:15:37;;;;;;;;;1.67;1.67;;;;;27.60;43.44;99452.13;5074028;27;45546;-73
2023/09/21 15:18:02;;;;;;;;;1.00;1.00;;;;;27.62;43.14;99444.53;5068196;28;45459;-75
2023/09/21 15:20:28;;;;;;;;;1.00;1.00;;;;;27.60;43.18;99446.66;5068525;28;47155;-72
2023/09/21 15:22:53;;;;;;;;;0.00;0.00;;;;;27.61;43.29;99451.06;5067315;28;45566;-73
2023/09/21 15:25:19;;;;;;;;;0.00;0.00;;;;;27.65;43.27;99454.16;5074172;28;45365;-73
2023/09/21 15:27:46;;;;;;;;;0.67;0.67;;;;;27.67;42.78;99451.19;5059177;28;45685;-74
2023/09/21 15:30:12;;;;;;;;;0.00;0.00;;;;;27.68;43.32;99450.13;5070396;28;45952;-74
2023/09/21 15:32:38;;;;;;;;;0.00;0.00;;;;;27.69;43.16;99451.78;5064178;28;45476;-73
2023/09/21 15:35:03;;;;;;;;;0.33;0.33;;;;;27.71;43.52;99455.94;5069013;28;45516;-74
2023/09/21 15:37:31;;;;;;;;;0.00;0.00;;;;;27.73;42.69;99450.28;5050702;28;45622;-73
2023/09/21 15:39:56;;;;;;;;;0.00;0.00;;;;;27.73;42.68;99451.13;5063672;28;47223;-73
2023/09/21 15:42:22;;;;;;;;;1.00;1.00;;;;;27.73;43.05;99451.13;5071111;28;45505;-73
2023/09/21 15:44:48;;;;;;;;;0.00;0.00;;;;;27.76;43.10;99458.00;5062333;28;45344;-72
2023/09/21 15:47:14;;;;;;;;;1.00;1.00;;;;;27.77;42.92;99461.56;5069337;28;45697;-73
2023/09/21 15:49:39;;;;;;;;;2.00;0.00;;;;;27.77;42.96;99469.72;5066317;28;48023;-73
2023/09/21 15:52:04;;;;;;;;;0.00;0.00;;;;;27.78;42.26;99461.31;5073544;28;45889;-74
2023/09/21 15:54:31;;;;;;;;;1.00;1.00;;;;;27.77;42.75;99461.56;5052132;28;45471;-74
2023/09/21 15:56:56;;;;;;;;;1.33;1.33;;;;;27.75;42.90;99475.44;5074181;28;45383;-74
2023/09/21 15:59:22;;;;;;;;;2.33;0.33;;;;;27.74;42.99;99480.03;5067727;28;45823;-73
2023/09/21 16:01:47;;;;;;;;;0.33;0.33;;;;;27.73;42.70;99475.66;5069467;28;45576;-73
2023/09/21 16:04:16;;;;;;;;;1.33;1.33;;;;;27.71;42.62;99480.47;5074483;28;45937;-74
2023/09/21 16:06:41;;;;;;;;;0.33;0.33;;;;;27.71;42.62;99480.47;5074209;28;45586;-73
2023/09/21 16:09:07;;;;;;;;;1.33;0.00;;;;;27.71;42.68;99479.66;5074051;28;46319;-75
2023/09/21 16:11:33;;;;;;;;;0.67;0.67;;;;;27.69;42.22;99485.34;5071576;28;46663;-75
2023/09/21 16:13:59;;;;;;;;;0.00;0.00;;;;;27.69;42.30;99489.94;5069992;28;45757;-75
2023/09/21 16:16:25;;;;;;;;;1.00;0.00;;;;;27.68;42.85;99500.03;5074450;28;45860;-73
2023/09/21 16:18:51;;;;;;;;;0.00;0.00;;;;;27.65;42.18;99486.84;5073932;28;46130;-73
2023/09/21 16:21:17;;;;;;;;;0.00;0.00;;;;;27.62;42.46;99493.59;5072434;28;46340;-74
2023/09/21 16:23:42;;;;;;;;;0.67;0.00;;;;;27.60;42.86;99490.28;5062665;28;45680;-74
2023/09/21 16:26:07;;;;;;;;;1.67;0.00;;;;;27.59;42.36;99494.00;5054327;27;45657;-76
2023/09/21 16:28:33;;;;;;;;;1.00;1.00;;;;;27.58;42.98;99499.66;5057725;28;46042;-74
2023/09/21 16:30:58;;;;;;;;;0.00;0.00;;;;;27.57;42.68;99501.59;5056836;28;45967;-75
2023/09/21 16:33:25;;;;;;;;;1.00;1.00;;;;;27.57;42.36;99498.84;5071856;28;45406;-75
2023/09/21 16:35:51;;;;;;;;;0.67;0.67;;;;;27.58;42.19;99502.41;5050264;28;45662;-74
2023/09/21 16:38:16;;;;;;;;;1.33;1.00;;;;;27.58;42.17;99499.66;5063104;28;45479;-74
2023/09/21 16:40:42;;;;;;;;;1.00;1.00;;;;;27.57;42.27;99504.31;5065204;28;45626;-74
2023/09/21 16:43:07;;;;;;;;;1.00;1.00;;;;;27.56;42.64;99508.09;5065341;28;45805;-74
2023/09/21 16:45:38;;;;;;;;;0.00;0.00;;;;;27.56;42.20;99510.81;5061652;27;45543;-75
2023/09/21 16:48:04;;;;;;;;;0.33;0.33;;;;;27.56;42.31;99513.53;5063504;28;46175;-74
2023/09/21 16:50:34;;;;;;;;;0.00;0.00;;;;;27.56;42.86;99504.53;5067076;28;45402;-74
2023/09/21 16:52:59;;;;;;;;;2.00;0.00;;;;;27.54;42.14;99509.38;5063802;28;45341;-74
2023/09/21 16:55:25;;;;;;;;;0.00;0.00;;;;;27.53;42.67;99510.41;5071904;27;45498;-74
2023/09/21 16:57:51;;;;;;;;;0.00;0.00;;;;;27.53;42.70;99519.44;5069791;28;45705;-74
2023/09/21 17:00:17;;;;;;;;;0.00;0.00;;;;;27.51;42.51;99527.03;5070586;28;45431;-74
2023/09/21 17:02:42;;;;;;;;;2.00;0.00;;;;;27.51;42.39;99520.72;5068087;28;45690;-74
2023/09/21 17:05:09;;;;;;;;;1.00;1.00;;;;;27.49;42.46;99519.06;5067577;27;45453;-75
2023/09/21 17:07:34;;;;;;;;;0.00;0.00;;;;;27.47;42.04;99510.25;5063901;28;45475;-75
2023/09/21 17:10:01;;;;;;;;;0.00;0.00;;;;;27.47;41.72;99515.72;5060133;28;46790;-76
2023/09/21 17:12:26;;;;;;;;;0.00;0.00;;;;;27.43;41.55;99506.31;5058344;28;45596;-77
2023/09/21 17:14:54;;;;;;;;;1.50;1.00;;;;;27.44;41.92;99523.50;5066145;27;46920;-78
2023/09/21 17:17:21;;;;;;;;;0.67;0.67;;;;;27.45;41.96;99525.16;5064542;28;46262;-78
2023/09/21 17:19:53;;;;;;;;;1.67;1.67;;;;;27.42;41.92;99526.44;5063674;28;46092;-78
2023/09/21 17:22:28;;;;;;;;;1.00;1.00;;;;;27.41;42.35;99532.97;5041834;28;45737;-77
2023/09/21 17:24:54;;;;;;;;;1.67;1.00;;;;;27.40;42.44;99541.34;5064378;27;46081;-77
2023/09/21 17:27:20;;;;;;;;;0.00;0.00;;;;;27.40;41.78;99546.81;5065802;28;45356;-78
2023/09/21 17:29:46;;;;;;;;;0.00;0.00;;;;;27.38;41.78;99541.56;5050599;28;45454;-78
2023/09/21 17:32:11;;;;;;;;;1.00;1.00;;;;;27.39;41.76;99539.69;5069330;28;45738;-78
2023/09/21 17:34:37;;;;;;;;;1.00;1.00;;;;;27.37;42.19;99542.63;5071514;28;45415;-78
2023/09/21 17:37:04;;;;;;;;;1.00;1.00;;;;;27.36;42.20;99541.81;5047947;28;45994;-79
2023/09/21 17:39:30;;;;;;;;;3.67;3.67;;;;;27.36;42.36;99543.69;5070537;28;45602;-78
2023/09/21 17:41:57;;;;;;;;;2.33;1.00;;;;;27.35;41.94;99547.50;5063390;28;45464;-77
2023/09/21 17:44:22;;;;;;;;;1.00;1.00;;;;;27.37;42.27;99550.81;5053615;27;45876;-77
2023/09/21 17:46:49;;;;;;;;;1.00;1.00;;;;;27.35;42.08;99545.59;5056434;27;45420;-78
2023/09/21 17:49:14;;;;;;;;;2.00;2.00;;;;;27.35;41.99;99550.22;5041855;28;45657;-78
2023/09/21 17:51:40;;;;;;;;;1.33;1.33;;;;;27.35;42.32;99551.03;5056415;28;45485;-78
2023/09/21 17:54:06;;;;;;;;;2.00;2.00;;;;;27.34;41.62;99554.81;5056472;27;45500;-78
2023/09/21 17:56:32;;;;;;;;;1.67;1.00;;;;;27.35;41.65;99547.50;5058493;27;45892;-76
2023/09/21 17:58:58;;;;;;;;;1.00;1.00;;;;;27.35;42.00;99542.03;5057533;27;47683;-78
2023/09/21 18:01:24;;;;;;;;;1.00;1.00;;;;;27.33;42.10;99549.59;5062434;28;45480;-78
2023/09/21 18:03:53;;;;;;;;;5.67;3.00;;;;;27.33;41.71;99555.03;5065320;28;45512;-78
2023/09/21 18:06:18;;;;;;;;;2.33;2.00;;;;;27.33;41.94;99565.94;5062416;27;46402;-77
2023/09/21 18:08:43;;;;;;;;;0.00;0.00;;;;;27.31;42.34;99559.88;5073170;27;45688;-77
2023/09/21 18:11:09;;;;;;;;;2.00;2.00;;;;;27.32;41.74;99561.53;5062051;27;45431;-77